createdAt,value
2023-05-23T09:34:57.042Z,14.25
2023-05-23T09:35:31.904Z,14.25
2023-05-23T09:36:06.336Z,14.25
2023-05-23T09:36:44.149Z,14.25
2023-05-23T09:37:19.341Z,14.25
2023-05-23T09:37:56.160Z,14.25
2023-05-23T09:38:30.380Z,14.25
2023-05-23T09:39:04.904Z,14.25
2023-05-23T09:39:38.624Z,14.25
2023-05-23T13:04:06.892Z,14.69
2023-05-23T13:04:40.454Z,14.81
2023-05-23T13:05:13.323Z,14.94
2023-05-23T13:05:46.309Z,15.00
2023-05-23T13:06:20.428Z,15.06
2023-05-23T13:06:53.295Z,15.19
2023-05-23T13:07:27.074Z,15.25
2023-05-23T13:07:59.837Z,15.31
2023-05-23T13:08:32.799Z,15.31
2023-05-23T13:09:06.776Z,15.25
2023-05-23T13:09:40.011Z,15.19
2023-05-23T13:10:14.221Z,15.00
2023-05-23T15:42:47.396Z,13.25
2023-05-23T20:44:03.092Z,9.94
2023-05-23T20:59:01.277Z,9.75
2023-05-23T20:59:34.026Z,9.75
2023-05-23T21:00:13.709Z,9.75
2023-05-23T21:00:47.560Z,9.75
2023-05-23T21:01:23.081Z,9.75
2023-05-23T21:01:56.879Z,9.69
2023-05-23T21:02:33.702Z,9.69
2023-05-23T21:03:06.526Z,9.69
2023-05-23T21:03:38.613Z,9.69
2023-05-23T21:04:11.984Z,9.63
2023-05-23T21:04:44.513Z,9.69
2023-05-23T21:05:16.755Z,9.63
2023-05-23T21:05:50.124Z,9.63
2023-05-23T21:06:22.843Z,9.63
2023-05-23T21:06:56.321Z,9.69
2023-05-23T21:07:29.172Z,9.63
2023-05-23T21:08:04.902Z,9.63
2023-05-23T21:08:38.509Z,9.63
2023-05-23T21:48:11.071Z,9.19
2023-05-23T21:48:43.243Z,9.13
2023-05-23T22:14:17.252Z,8.44
2023-05-23T22:19:26.351Z,8.38
2023-05-23T22:20:00.748Z,8.38
2023-05-23T22:20:34.128Z,8.38
2023-05-23T22:21:06.431Z,8.38
2023-05-23T22:21:40.182Z,8.38
2023-05-23T22:22:12.752Z,8.38
2023-05-23T22:22:45.090Z,8.38
2023-05-23T22:23:18.109Z,8.31
2023-05-23T22:23:51.146Z,8.31
2023-05-23T22:24:23.721Z,8.31
2023-05-23T22:24:56.695Z,8.31
2023-05-23T22:25:32.514Z,8.31
2023-05-23T22:26:07.128Z,8.31
2023-05-23T22:26:40.501Z,8.31
2023-05-23T22:27:13.078Z,8.31
2023-05-23T22:27:48.231Z,8.31
2023-05-23T22:28:21.272Z,8.31
2023-05-23T22:28:54.841Z,8.31
2023-05-23T22:29:27.276Z,8.31
2023-05-23T22:30:00.562Z,8.31
2023-05-23T22:30:32.884Z,8.31
2023-05-23T22:31:05.151Z,8.31
2023-05-23T22:31:38.250Z,8.38
2023-05-23T22:32:10.658Z,8.38
2023-05-23T22:32:44.730Z,8.31
2023-05-23T22:33:17.811Z,8.31
2023-05-23T22:33:50.184Z,8.31
2023-05-23T22:34:23.252Z,8.31
2023-05-23T22:34:55.388Z,8.31
2023-05-23T22:35:27.468Z,8.31
2023-05-23T22:35:59.446Z,8.31
2023-05-23T22:36:33.485Z,8.31
2023-05-23T22:37:05.560Z,8.31
2023-05-23T22:37:37.517Z,8.31
2023-05-23T22:38:11.590Z,8.25
2023-05-23T22:38:43.711Z,8.25
2023-05-23T22:39:15.933Z,8.19
2023-05-23T22:39:48.988Z,8.19
2023-05-23T22:40:23.983Z,8.19
2023-05-23T22:40:56.300Z,8.19
2023-05-23T22:41:29.292Z,8.19
2023-05-23T22:42:01.869Z,8.25
2023-05-23T22:42:33.844Z,8.25
2023-05-23T22:43:07.116Z,8.31
2023-05-23T22:43:39.105Z,8.31
2023-05-23T22:44:11.824Z,8.31
2023-05-23T22:44:44.802Z,8.38
2023-05-23T22:45:16.720Z,8.38
2023-05-23T22:45:50.083Z,8.38
2023-05-23T22:46:26.741Z,8.38
2023-05-23T22:47:00.014Z,8.38
2023-05-23T22:47:32.633Z,8.38
2023-05-23T22:48:08.407Z,8.38
2023-05-23T22:48:40.415Z,8.31
2023-05-23T22:49:12.437Z,8.31
2023-05-23T22:49:45.651Z,8.31
2023-05-23T22:50:18.293Z,8.31
2023-05-23T22:50:54.066Z,8.31
2023-05-23T22:51:26.356Z,8.31
2023-05-23T22:51:59.596Z,8.31
2023-05-23T22:52:34.636Z,8.31
2023-05-23T22:53:07.834Z,8.31
2023-05-23T22:53:39.864Z,8.31
2023-05-23T22:54:12.898Z,8.31
2023-05-23T22:54:45.045Z,8.25
2023-05-23T22:55:17.075Z,8.25
2023-05-23T22:55:51.151Z,8.25
2023-05-23T22:56:23.202Z,8.31
2023-05-23T22:56:55.802Z,8.31
2023-05-23T22:57:28.760Z,8.25
2023-05-23T22:58:00.896Z,8.25
2023-05-23T22:58:32.877Z,8.25
2023-05-23T22:59:05.829Z,8.25
2023-05-23T22:59:37.829Z,8.25
2023-05-23T23:00:11.200Z,8.19
2023-05-23T23:00:45.372Z,8.19
2023-05-23T23:01:17.468Z,8.19
2023-05-23T23:01:49.582Z,8.13
2023-05-23T23:02:22.617Z,8.19
2023-05-23T23:02:54.734Z,8.13
2023-05-23T23:03:28.116Z,8.19
2023-05-23T23:04:01.133Z,8.19
2023-05-23T23:04:33.098Z,8.19
2023-05-23T23:05:06.080Z,8.13
2023-05-23T23:05:39.617Z,8.13
2023-05-23T23:06:12.260Z,8.13
2023-05-23T23:06:44.442Z,8.13
2023-05-23T23:07:17.665Z,8.13
2023-05-23T23:07:49.664Z,8.06
2023-05-23T23:08:21.829Z,8.06
2023-05-23T23:08:54.949Z,8.06
2023-05-23T23:09:27.057Z,8.06
2023-05-23T23:09:59.053Z,8.06
2023-05-23T23:10:31.946Z,8.06
2023-05-23T23:11:05.437Z,8.06
2023-05-23T23:11:40.412Z,8.06
2023-05-23T23:12:13.423Z,8.00
2023-05-23T23:12:45.519Z,8.00
2023-05-23T23:13:17.547Z,8.00
2023-05-23T23:13:50.812Z,8.00
2023-05-23T23:14:22.801Z,7.94
2023-05-23T23:14:54.743Z,7.94
2023-05-23T23:15:30.126Z,7.94
2023-05-23T23:16:02.071Z,7.94
2023-05-23T23:16:34.646Z,7.88
2023-05-23T23:17:08.034Z,7.88
2023-05-23T23:17:40.123Z,7.88
2023-05-23T23:18:13.791Z,7.88
2023-05-23T23:18:49.064Z,7.88
2023-05-23T23:19:21.795Z,7.88
2023-05-23T23:19:54.738Z,7.88
2023-05-23T23:20:34.189Z,7.88
2023-05-23T23:21:06.425Z,7.88
2023-05-23T23:21:38.396Z,7.88
2023-05-23T23:22:11.423Z,7.88
2023-05-23T23:22:43.667Z,7.88
2023-05-23T23:23:15.785Z,7.88
2023-05-23T23:23:48.716Z,7.88
2023-05-23T23:24:20.937Z,7.88
2023-05-23T23:24:53.141Z,7.88
2023-05-23T23:25:26.255Z,7.88
2023-05-23T23:25:59.493Z,7.88
2023-05-23T23:26:31.509Z,7.88
2023-05-23T23:27:04.642Z,7.88
2023-05-23T23:27:36.673Z,7.88
2023-05-23T23:28:08.721Z,7.88
2023-05-23T23:28:41.674Z,7.88
2023-05-23T23:29:13.656Z,7.94
2023-05-23T23:29:46.389Z,7.94
2023-05-23T23:30:19.369Z,7.94
2023-05-23T23:30:51.332Z,7.94
2023-05-23T23:31:23.367Z,7.94
2023-05-23T23:31:58.961Z,7.94
2023-05-23T23:32:32.827Z,7.94
2023-05-23T23:33:06.132Z,7.94
2023-05-23T23:33:39.214Z,7.94
2023-05-23T23:34:12.718Z,7.94
2023-05-23T23:34:44.712Z,7.94
2023-05-23T23:35:16.688Z,7.94
2023-05-23T23:35:51.680Z,7.94
2023-05-23T23:36:23.793Z,7.94
2023-05-23T23:36:56.523Z,7.94
2023-05-23T23:37:29.545Z,7.94
2023-05-23T23:38:01.866Z,7.94
2023-05-23T23:38:33.975Z,8.00
2023-05-23T23:39:06.993Z,8.00
2023-05-23T23:39:38.990Z,8.00
2023-05-23T23:40:11.803Z,8.00
2023-05-23T23:40:45.664Z,8.00
2023-05-23T23:41:24.771Z,8.00
2023-05-23T23:41:56.760Z,8.00
2023-05-23T23:42:29.779Z,8.00
2023-05-23T23:43:01.767Z,8.00
2023-05-23T23:43:33.797Z,8.00
2023-05-23T23:44:06.811Z,8.00
2023-05-23T23:44:38.784Z,8.00
2023-05-23T23:45:11.351Z,8.00
2023-05-23T23:45:44.335Z,8.00
2023-05-23T23:46:16.663Z,8.00
2023-05-23T23:46:48.866Z,7.94
2023-05-23T23:47:21.920Z,8.00
2023-05-23T23:47:53.977Z,8.00
2023-05-23T23:48:26.019Z,8.00
2023-05-23T23:48:58.944Z,8.00
2023-05-23T23:49:32.270Z,8.00
2023-05-23T23:50:04.723Z,7.94
2023-05-23T23:50:37.999Z,7.94
2023-05-23T23:51:10.530Z,7.94
2023-05-23T23:51:42.996Z,7.94
2023-05-23T23:52:21.953Z,8.00
2023-05-23T23:52:54.159Z,8.00
2023-05-23T23:53:26.179Z,8.00
2023-05-23T23:53:59.136Z,8.00
2023-05-23T23:54:31.059Z,8.06
2023-05-23T23:55:03.135Z,8.06
2023-05-23T23:55:36.073Z,8.06
2023-05-23T23:56:08.059Z,8.06
2023-05-23T23:56:40.010Z,8.06
2023-05-23T23:57:14.201Z,8.06
2023-05-23T23:57:47.229Z,8.06
2023-05-23T23:58:19.746Z,8.06
2023-05-23T23:58:52.798Z,8.06
2023-05-23T23:59:24.750Z,8.06
2023-05-23T23:59:57.076Z,8.06
